createdAt,value
2023-03-20T00:13:49.476Z,7.10
2023-03-20T00:28:52.129Z,6.53
2023-03-20T00:43:58.299Z,5.70
2023-03-20T00:59:02.475Z,6.30
2023-03-20T01:14:04.794Z,6.67
2023-03-20T01:29:21.501Z,6.13
2023-03-20T01:44:30.175Z,4.10
2023-03-20T02:00:05.273Z,5.47
2023-03-20T02:15:08.440Z,5.30
2023-03-20T02:30:19.288Z,5.83
2023-03-20T02:45:29.357Z,6.43
2023-03-20T03:00:36.706Z,5.43
2023-03-20T03:15:42.766Z,5.53
2023-03-20T03:30:45.438Z,5.73
2023-03-20T03:45:56.158Z,4.50
2023-03-20T04:01:00.146Z,5.73
2023-03-20T04:16:02.513Z,5.60
2023-03-20T04:31:04.436Z,4.83
2023-03-20T04:46:07.001Z,5.10
2023-03-20T05:01:09.041Z,4.37
2023-03-20T05:16:10.918Z,6.67
2023-03-20T05:31:12.839Z,5.67
2023-03-20T06:16:20.405Z,7.10
2023-03-20T06:31:22.116Z,5.43
2023-03-20T07:01:26.221Z,6.53
2023-03-20T07:16:28.240Z,8.23
2023-03-20T07:31:31.475Z,10.13
2023-03-20T07:46:33.270Z,9.43
2023-03-20T08:01:35.155Z,12.13
2023-03-20T08:16:36.909Z,11.07
2023-03-20T08:31:40.217Z,9.20
2023-03-20T08:46:43.761Z,12.73
2023-03-20T09:01:50.032Z,14.27
2023-03-20T09:16:52.375Z,15.93
2023-03-20T09:31:54.632Z,15.97
2023-03-20T09:47:16.503Z,15.63
2023-03-20T10:02:34.383Z,16.47
2023-03-20T10:18:00.609Z,17.83
2023-03-20T10:33:25.308Z,18.33
2023-03-20T10:48:33.846Z,21.87
2023-03-20T11:03:39.771Z,20.27
2023-03-20T11:18:42.257Z,21.87
2023-03-20T11:33:46.925Z,25.97
2023-03-20T11:49:03.179Z,28.80
2023-03-20T12:04:09.670Z,28.50
2023-03-20T12:19:19.210Z,32.47
2023-03-20T12:34:47.219Z,30.33
2023-03-20T12:50:07.346Z,30.03
2023-03-20T13:05:24.144Z,28.27
2023-03-20T13:20:30.560Z,34.40
2023-03-20T13:35:56.894Z,32.87
2023-03-20T13:51:42.008Z,26.60
2023-03-20T14:06:52.678Z,31.17
2023-03-20T14:21:56.263Z,30.90
2023-03-20T14:36:59.331Z,32.83
2023-03-20T14:52:31.685Z,32.40
2023-03-20T15:07:39.131Z,32.93
2023-03-20T15:22:58.182Z,29.30
2023-03-20T15:38:06.448Z,27.17
2023-03-20T15:53:11.434Z,26.67
2023-03-20T16:08:27.182Z,25.83
2023-03-20T16:23:46.801Z,24.57
2023-03-20T16:39:02.960Z,20.87
2023-03-20T16:54:05.181Z,21.23
2023-03-20T17:09:18.552Z,19.27
2023-03-20T17:24:20.578Z,19.53
2023-03-20T17:39:22.555Z,15.90
2023-03-20T17:54:24.300Z,18.10
2023-03-20T18:09:26.148Z,17.50
2023-03-20T18:24:27.912Z,14.20
2023-03-20T18:39:29.567Z,18.33
2023-03-20T18:54:31.394Z,19.73
2023-03-20T19:09:33.776Z,18.57
2023-03-20T19:24:35.645Z,16.13
2023-03-20T19:39:37.430Z,14.53
2023-03-20T19:54:50.072Z,16.87
2023-03-20T20:10:01.944Z,14.60
2023-03-20T20:25:05.318Z,15.37
2023-03-20T20:40:08.698Z,16.33
2023-03-20T20:55:22.493Z,15.40
2023-03-20T21:10:25.405Z,15.63
2023-03-20T21:25:39.717Z,14.03
2023-03-20T21:40:43.258Z,14.37
2023-03-20T21:56:37.347Z,13.43
2023-03-20T22:27:18.857Z,14.63
2023-03-20T22:57:12.874Z,13.70
2023-03-20T23:12:14.629Z,10.07
2023-03-20T23:27:19.353Z,13.03
2023-03-20T23:42:30.422Z,13.87
2023-03-20T23:57:32.513Z,14.30
